createdAt,value
2022-12-24T00:01:21.059Z,86.65
2022-12-24T00:03:49.102Z,87.15
2022-12-24T00:06:19.527Z,87.03
2022-12-24T00:08:48.980Z,87.19
2022-12-24T00:11:17.160Z,87.24
2022-12-24T00:13:45.282Z,87.83
2022-12-24T00:16:13.331Z,88.04
2022-12-24T00:18:45.931Z,87.59
2022-12-24T00:21:15.103Z,87.61
2022-12-24T00:23:43.078Z,87.38
2022-12-24T00:26:12.608Z,87.77
2022-12-24T00:28:40.819Z,88.20
2022-12-24T00:31:10.451Z,87.64
2022-12-24T00:33:38.656Z,87.77
2022-12-24T00:36:07.844Z,87.64
2022-12-24T00:38:35.619Z,87.68
2022-12-24T00:41:05.545Z,88.02
2022-12-24T00:43:34.912Z,87.96
2022-12-24T00:46:02.866Z,88.04
2022-12-24T00:48:30.907Z,88.30
2022-12-24T00:50:58.962Z,88.06
2022-12-24T00:53:26.994Z,88.27
2022-12-24T00:55:54.947Z,88.00
2022-12-24T00:58:22.883Z,87.86
2022-12-24T01:00:52.305Z,87.92
2022-12-24T01:03:20.849Z,88.12
2022-12-24T01:05:48.568Z,87.68
2022-12-24T01:08:16.589Z,87.28
2022-12-24T01:10:44.604Z,86.85
2022-12-24T01:13:12.629Z,86.80
2022-12-24T01:15:40.675Z,86.41
2022-12-24T01:18:10.081Z,86.23
2022-12-24T01:20:38.036Z,85.95
2022-12-24T01:23:06.889Z,85.83
2022-12-24T01:25:34.918Z,85.64
2022-12-24T01:28:02.914Z,85.15
2022-12-24T01:30:31.346Z,84.63
2022-12-24T01:32:59.406Z,84.38
2022-12-24T01:35:28.817Z,84.03
2022-12-24T01:37:56.817Z,83.88
2022-12-24T01:40:44.768Z,83.67
2022-12-24T01:43:28.554Z,83.26
2022-12-24T01:45:57.968Z,82.68
2022-12-24T01:48:40.923Z,82.89
2022-12-24T01:51:28.706Z,82.68
2022-12-24T01:53:59.526Z,82.32
2022-12-24T01:56:30.077Z,82.05
2022-12-24T01:59:04.915Z,81.58
2022-12-24T02:01:33.385Z,81.05
2022-12-24T02:04:03.810Z,80.27
2022-12-24T02:06:33.172Z,80.09
2022-12-24T02:09:01.225Z,78.67
2022-12-24T02:11:29.218Z,78.45
2022-12-24T02:14:01.374Z,77.45
2022-12-24T02:16:43.411Z,76.84
2022-12-24T02:19:27.940Z,76.65
2022-12-24T02:22:03.632Z,76.63
2022-12-24T02:25:04.250Z,76.20
2022-12-24T02:27:46.545Z,76.42
2022-12-24T02:30:19.660Z,76.38
2022-12-24T02:33:07.552Z,76.96
2022-12-24T02:35:44.852Z,76.21
2022-12-24T02:38:18.697Z,76.79
2022-12-24T02:40:52.090Z,77.65
2022-12-24T02:43:24.503Z,76.56
2022-12-24T02:45:59.712Z,77.62
2022-12-24T02:48:30.304Z,77.35
2022-12-24T02:51:02.418Z,77.21
2022-12-24T02:53:30.474Z,77.28
2022-12-24T02:56:26.144Z,78.31
2022-12-24T02:59:10.724Z,77.86
2022-12-24T03:01:51.796Z,78.59
2022-12-24T03:04:40.288Z,79.38
2022-12-24T03:07:17.166Z,81.03
2022-12-24T03:09:54.562Z,79.15
2022-12-24T03:12:29.350Z,78.82
2022-12-24T03:14:57.808Z,78.72
2022-12-24T03:17:28.439Z,79.25
2022-12-24T03:19:57.237Z,79.70
2022-12-24T03:22:27.537Z,78.72
2022-12-24T03:24:56.499Z,78.76
2022-12-24T03:27:27.797Z,79.63
2022-12-24T03:29:56.158Z,79.92
2022-12-24T03:32:31.057Z,80.54
2022-12-24T03:34:59.198Z,80.55
2022-12-24T03:37:27.808Z,81.36
2022-12-24T03:39:55.792Z,81.26
2022-12-24T03:42:23.780Z,80.65
2022-12-24T03:44:51.696Z,80.21
2022-12-24T03:47:19.619Z,80.68
2022-12-24T03:49:49.041Z,80.54
2022-12-24T03:52:17.088Z,81.04
2022-12-24T03:54:45.083Z,81.11
2022-12-24T03:57:13.069Z,80.97
2022-12-24T03:59:41.197Z,80.93
2022-12-24T04:02:09.470Z,81.44
2022-12-24T04:04:37.842Z,81.00
2022-12-24T04:07:07.352Z,80.35
2022-12-24T04:09:35.337Z,80.80
2022-12-24T04:12:03.417Z,79.98
2022-12-24T04:14:31.528Z,80.67
2022-12-24T04:16:59.532Z,80.64
2022-12-24T04:19:27.714Z,80.78
2022-12-24T04:21:55.638Z,80.98
2022-12-24T04:24:25.209Z,80.20
2022-12-24T04:26:53.336Z,80.41
2022-12-24T04:29:21.312Z,81.09
2022-12-24T04:31:49.355Z,81.01
2022-12-24T04:34:17.457Z,81.42
2022-12-24T04:36:45.452Z,81.21
2022-12-24T04:39:13.391Z,81.05
2022-12-24T04:41:42.761Z,81.29
2022-12-24T04:44:11.339Z,82.90
2022-12-24T04:46:39.381Z,80.95
2022-12-24T04:49:07.383Z,83.10
2022-12-24T04:51:36.177Z,83.85
2022-12-24T04:54:04.339Z,84.56
2022-12-24T04:56:33.694Z,84.94
2022-12-24T04:59:03.328Z,85.08
2022-12-24T05:01:33.205Z,85.71
2022-12-24T05:04:01.646Z,86.41
2022-12-24T05:06:33.220Z,86.46
2022-12-24T05:09:01.798Z,86.60
2022-12-24T05:11:29.966Z,85.10
2022-12-24T05:13:58.148Z,83.47
2022-12-24T05:16:27.526Z,83.12
2022-12-24T05:18:55.836Z,82.29
2022-12-24T05:21:25.330Z,81.88
2022-12-24T05:24:11.353Z,81.38
2022-12-24T05:26:42.795Z,81.66
2022-12-24T05:29:13.317Z,81.08
2022-12-24T05:31:45.150Z,81.05
2022-12-24T05:34:14.596Z,79.68
2022-12-24T05:36:42.902Z,79.84
2022-12-24T05:39:16.035Z,79.53
2022-12-24T05:41:44.422Z,79.27
2022-12-24T05:44:12.721Z,78.68
2022-12-24T05:46:42.159Z,78.34
2022-12-24T05:49:10.397Z,78.18
2022-12-24T05:51:38.323Z,77.62
2022-12-24T05:54:06.500Z,78.32
2022-12-24T05:56:34.897Z,77.55
2022-12-24T05:59:02.959Z,77.78
2022-12-24T06:01:31.213Z,77.88
2022-12-24T06:04:00.658Z,77.02
2022-12-24T06:06:29.510Z,76.40
2022-12-24T06:08:57.487Z,76.31
2022-12-24T06:11:27.612Z,76.53
2022-12-24T06:13:56.416Z,77.94
2022-12-24T06:16:26.346Z,78.50
2022-12-24T06:18:54.508Z,77.86
2022-12-24T06:21:24.283Z,77.81
2022-12-24T06:23:52.579Z,77.44
2022-12-24T06:26:22.296Z,78.75
2022-12-24T06:28:51.416Z,78.23
2022-12-24T06:31:20.497Z,79.37
2022-12-24T06:33:48.771Z,80.12
2022-12-24T06:36:19.244Z,80.11
2022-12-24T06:38:49.473Z,81.67
2022-12-24T06:41:19.199Z,82.33
2022-12-24T06:43:48.525Z,83.90
2022-12-24T06:46:18.019Z,84.13
2022-12-24T06:48:46.656Z,85.23
2022-12-24T06:51:15.818Z,84.31
2022-12-24T06:53:43.782Z,85.20
2022-12-24T06:56:15.333Z,84.48
2022-12-24T06:58:43.815Z,85.57
2022-12-24T07:01:13.990Z,85.79
2022-12-24T07:03:42.782Z,85.71
2022-12-24T07:06:17.237Z,85.49
2022-12-24T07:08:45.261Z,86.18
2022-12-24T07:11:14.641Z,86.50
2022-12-24T07:13:42.667Z,86.66
2022-12-24T07:16:11.154Z,86.94
2022-12-24T07:18:39.304Z,87.89
2022-12-24T07:21:08.285Z,88.46
2022-12-24T07:23:36.488Z,89.09
2022-12-24T07:26:06.603Z,89.72
2022-12-24T07:28:35.980Z,89.67
2022-12-24T07:31:04.160Z,89.75
2022-12-24T07:33:32.606Z,90.10
2022-12-24T07:36:02.087Z,90.52
2022-12-24T07:38:30.415Z,90.72
2022-12-24T07:40:58.758Z,90.79
2022-12-24T07:43:27.601Z,90.55
2022-12-24T07:45:58.280Z,91.22
2022-12-24T07:48:27.136Z,91.03
2022-12-24T07:50:55.283Z,91.03
2022-12-24T07:53:23.771Z,90.87
2022-12-24T07:55:51.787Z,90.98
2022-12-24T07:58:19.852Z,90.81
2022-12-24T08:00:47.836Z,90.71
2022-12-24T08:03:19.658Z,90.89
2022-12-24T08:05:49.052Z,90.66
2022-12-24T08:08:18.406Z,90.30
2022-12-24T08:10:47.516Z,90.71
2022-12-24T08:13:15.910Z,90.71
2022-12-24T08:15:43.896Z,90.54
2022-12-24T08:18:12.890Z,90.57
2022-12-24T08:20:42.814Z,90.84
2022-12-24T08:23:10.984Z,91.21
2022-12-24T08:25:39.500Z,90.05
2022-12-24T08:28:07.740Z,90.78
2022-12-24T08:30:36.152Z,90.26
2022-12-24T08:33:04.261Z,90.29
2022-12-24T08:35:32.275Z,90.38
2022-12-24T08:38:01.780Z,89.74
2022-12-24T08:40:29.742Z,89.87
2022-12-24T08:42:57.721Z,89.87
2022-12-24T08:45:25.809Z,89.92
2022-12-24T08:47:53.829Z,88.68
2022-12-24T08:50:21.761Z,87.79
2022-12-24T08:52:49.669Z,87.40
2022-12-24T08:55:19.474Z,86.56
2022-12-24T08:57:47.426Z,84.99
2022-12-24T09:00:16.499Z,84.32
2022-12-24T09:02:44.449Z,82.88
2022-12-24T09:05:12.564Z,83.38
2022-12-24T09:07:40.513Z,82.56
2022-12-24T09:10:09.757Z,82.76
2022-12-24T09:12:39.366Z,82.93
2022-12-24T09:15:09.065Z,81.94
2022-12-24T09:17:37.606Z,82.31
2022-12-24T09:20:07.888Z,81.12
2022-12-24T09:22:37.135Z,80.97
2022-12-24T09:25:07.339Z,82.07
2022-12-24T09:27:35.552Z,80.99
2022-12-24T09:30:06.299Z,81.29
2022-12-24T09:32:34.578Z,81.44
2022-12-24T09:35:02.700Z,81.79
2022-12-24T09:37:30.746Z,82.22
2022-12-24T09:39:58.698Z,81.98
2022-12-24T09:42:42.759Z,82.01
2022-12-24T09:45:20.043Z,81.20
2022-12-24T09:47:50.722Z,81.16
2022-12-24T09:50:38.954Z,81.51
2022-12-24T09:53:17.395Z,80.27
2022-12-24T09:55:48.840Z,80.76
2022-12-24T09:58:26.204Z,80.73
2022-12-24T10:00:57.385Z,80.95
2022-12-24T10:03:25.540Z,80.72
2022-12-24T10:06:05.467Z,80.19
2022-12-24T10:08:44.472Z,79.59
2022-12-24T10:11:15.936Z,80.21
2022-12-24T10:13:57.208Z,79.82
2022-12-24T10:16:33.754Z,79.41
2022-12-24T10:19:08.143Z,80.16
2022-12-24T10:21:49.099Z,80.07
2022-12-24T10:24:23.382Z,80.62
2022-12-24T10:26:58.278Z,80.68
2022-12-24T10:29:30.370Z,80.99
2022-12-24T10:32:09.140Z,81.37
2022-12-24T10:34:42.914Z,82.13
2022-12-24T10:37:15.677Z,82.05
2022-12-24T10:39:44.218Z,82.37
2022-12-24T10:42:15.348Z,82.47
2022-12-24T10:44:47.110Z,82.49
2022-12-24T10:47:18.361Z,82.64
2022-12-24T10:49:50.171Z,83.28
2022-12-24T10:52:22.829Z,83.44
2022-12-24T10:55:11.100Z,83.69
2022-12-24T10:57:40.389Z,84.07
2022-12-24T11:00:19.755Z,84.41
2022-12-24T11:02:50.708Z,83.78
2022-12-24T11:05:31.165Z,83.88
2022-12-24T11:08:02.590Z,84.31
2022-12-24T11:10:31.112Z,84.52
2022-12-24T11:13:27.848Z,84.66
2022-12-24T11:15:48.220Z,85.31
2022-12-24T11:18:17.658Z,84.82
2022-12-24T11:20:52.251Z,85.35
2022-12-24T11:23:21.473Z,84.68
2022-12-24T11:25:52.222Z,84.96
2022-12-24T11:28:23.762Z,84.78
2022-12-24T11:31:01.120Z,84.86
2022-12-24T11:33:32.031Z,84.56
2022-12-24T11:36:05.179Z,85.08
2022-12-24T11:38:35.075Z,85.45
2022-12-24T11:41:09.314Z,85.79
2022-12-24T11:43:48.376Z,86.02
2022-12-24T11:46:18.190Z,85.98
2022-12-24T11:48:48.527Z,85.67
2022-12-24T11:51:23.934Z,85.46
2022-12-24T11:53:59.921Z,86.27
2022-12-24T11:56:35.026Z,86.09
2022-12-24T11:59:13.786Z,85.78
2022-12-24T12:01:51.625Z,85.85
2022-12-24T12:04:23.619Z,85.46
2022-12-24T12:06:56.537Z,85.97
2022-12-24T12:09:28.241Z,85.77
2022-12-24T12:12:02.837Z,85.12
2022-12-24T12:14:36.132Z,85.84
2022-12-24T12:17:14.197Z,85.67
2022-12-24T12:19:46.749Z,84.42
2022-12-24T12:22:25.365Z,83.83
2022-12-24T12:24:57.045Z,82.80
2022-12-24T12:27:31.999Z,82.89
2022-12-24T12:30:03.549Z,83.64
2022-12-24T12:32:43.286Z,82.29
2022-12-24T12:35:23.059Z,82.18
2022-12-24T12:37:56.841Z,82.03
2022-12-24T12:40:39.803Z,82.30
2022-12-24T12:43:19.158Z,82.84
2022-12-24T12:45:54.542Z,83.04
2022-12-24T12:49:00.311Z,82.81
2022-12-24T12:51:38.908Z,83.57
2022-12-24T12:54:32.895Z,83.37
2022-12-24T12:57:07.149Z,82.79
2022-12-24T12:59:39.735Z,84.04
2022-12-24T13:02:24.001Z,84.28
2022-12-24T13:05:36.535Z,84.88
2022-12-24T13:08:22.228Z,85.60
2022-12-24T13:11:15.434Z,86.44
2022-12-24T13:14:11.593Z,86.81
2022-12-24T13:17:06.767Z,87.73
2022-12-24T13:19:50.585Z,87.01
2022-12-24T13:22:22.386Z,87.80
2022-12-24T13:24:54.165Z,88.09
2022-12-24T13:27:25.935Z,88.45
2022-12-24T13:29:56.917Z,88.23
2022-12-24T13:32:51.525Z,88.96
2022-12-24T13:35:38.162Z,89.58
2022-12-24T13:38:46.320Z,90.03
2022-12-24T13:41:56.762Z,90.17
2022-12-24T13:44:44.507Z,91.29
2022-12-24T13:47:31.890Z,91.00
2022-12-24T13:50:15.414Z,91.84
2022-12-24T13:52:53.371Z,91.63
2022-12-24T13:55:21.867Z,92.00
2022-12-24T13:57:59.627Z,91.64
2022-12-24T14:00:44.892Z,92.07
2022-12-24T14:03:36.402Z,92.52
2022-12-24T14:06:08.681Z,91.94
2022-12-24T14:08:41.224Z,92.76
2022-12-24T14:11:12.474Z,91.66
2022-12-24T14:14:14.876Z,92.75
2022-12-24T14:16:50.542Z,92.21
2022-12-24T14:19:22.555Z,92.91
2022-12-24T14:22:02.202Z,92.59
2022-12-24T14:24:36.513Z,92.49
2022-12-24T14:27:15.188Z,92.96
2022-12-24T14:29:51.225Z,92.79
2022-12-24T14:32:20.868Z,92.80
2022-12-24T14:35:05.566Z,93.40
2022-12-24T14:37:34.903Z,93.76
2022-12-24T14:40:03.504Z,93.52
2022-12-24T14:42:40.969Z,93.88
2022-12-24T14:45:19.410Z,93.79
2022-12-24T14:47:56.802Z,94.18
2022-12-24T14:50:37.522Z,94.30
2022-12-24T14:53:19.070Z,94.83
2022-12-24T14:55:49.097Z,94.52
2022-12-24T14:58:29.453Z,94.64
2022-12-24T15:00:59.239Z,94.70
2022-12-24T15:03:30.372Z,95.28
2022-12-24T15:06:01.905Z,95.06
2022-12-24T15:08:33.258Z,95.91
2022-12-24T15:11:05.595Z,95.80
2022-12-24T15:13:37.585Z,96.16
2022-12-24T15:16:09.032Z,95.98
2022-12-24T15:18:43.087Z,96.23
2022-12-24T15:21:17.895Z,96.26
2022-12-24T15:23:51.271Z,96.56
2022-12-24T15:26:25.223Z,96.82
2022-12-24T15:29:01.786Z,96.33
2022-12-24T15:31:31.883Z,96.45
2022-12-24T15:34:01.899Z,96.79
2022-12-24T15:36:32.684Z,97.45
2022-12-24T15:39:03.309Z,97.01
2022-12-24T15:41:38.321Z,97.59
2022-12-24T15:44:06.539Z,98.09
2022-12-24T15:46:34.878Z,97.83
2022-12-24T15:49:04.803Z,98.21
2022-12-24T15:51:37.565Z,98.04
2022-12-24T15:54:15.312Z,97.59
2022-12-24T15:56:45.072Z,97.93
2022-12-24T15:59:36.107Z,97.65
2022-12-24T16:02:39.316Z,97.80
2022-12-24T16:05:36.871Z,98.10
2022-12-24T16:08:08.496Z,98.03
2022-12-24T16:10:39.255Z,97.63
2022-12-24T16:13:22.279Z,98.26
2022-12-24T16:15:54.546Z,97.61
2022-12-24T16:18:28.134Z,98.24
2022-12-24T16:20:58.408Z,98.37
2022-12-24T16:23:31.381Z,98.63
2022-12-24T16:25:59.803Z,98.55
2022-12-24T16:28:27.996Z,99.25
2022-12-24T16:30:57.637Z,99.07
2022-12-24T16:33:25.876Z,99.18
2022-12-24T16:35:54.029Z,100.00
2022-12-24T16:38:23.826Z,100.00
2022-12-24T16:40:52.165Z,100.00
2022-12-24T16:43:37.872Z,100.00
2022-12-24T16:46:08.205Z,100.00
2022-12-24T16:48:39.121Z,100.00
2022-12-24T16:51:07.242Z,100.00
2022-12-24T16:53:36.578Z,100.00
2022-12-24T16:56:05.090Z,100.00
2022-12-24T16:58:33.177Z,100.00
2022-12-24T17:01:08.117Z,100.00
2022-12-24T17:03:36.981Z,100.00
2022-12-24T17:06:09.470Z,100.00
2022-12-24T17:08:38.923Z,100.00
2022-12-24T17:11:07.060Z,100.00
2022-12-24T17:13:35.005Z,100.00
2022-12-24T17:16:03.499Z,100.00
2022-12-24T17:18:31.593Z,100.00
2022-12-24T17:21:01.382Z,100.00
2022-12-24T17:23:29.707Z,100.00
2022-12-24T17:25:59.142Z,100.00
2022-12-24T17:28:27.098Z,100.00
2022-12-24T17:30:55.245Z,100.00
2022-12-24T17:33:23.196Z,99.63
2022-12-24T17:35:52.251Z,99.62
2022-12-24T17:38:20.006Z,98.87
2022-12-24T17:40:48.004Z,100.00
2022-12-24T17:43:17.928Z,99.46
2022-12-24T17:45:45.817Z,99.57
2022-12-24T17:48:13.973Z,99.41
2022-12-24T17:50:41.952Z,98.53
2022-12-24T17:53:10.045Z,99.31
2022-12-24T17:55:41.690Z,99.60
2022-12-24T17:58:10.178Z,98.68
2022-12-24T18:00:39.904Z,99.11
2022-12-24T18:03:08.028Z,99.46
2022-12-24T18:05:36.343Z,99.48
2022-12-24T18:08:04.689Z,99.87
2022-12-24T18:10:32.686Z,100.00
2022-12-24T18:13:00.718Z,99.59
2022-12-24T18:15:28.720Z,100.00
2022-12-24T18:17:59.328Z,100.00
2022-12-24T18:20:27.343Z,100.00
2022-12-24T18:22:55.447Z,100.00
2022-12-24T18:25:23.675Z,100.00
2022-12-24T18:27:51.732Z,100.00
2022-12-24T18:30:24.363Z,100.00
2022-12-24T18:32:57.114Z,100.00
2022-12-24T18:35:25.189Z,100.00
2022-12-24T18:37:53.440Z,100.00
2022-12-24T18:40:21.511Z,100.00
2022-12-24T18:42:49.487Z,100.00
2022-12-24T18:45:17.575Z,100.00
2022-12-24T18:47:46.012Z,100.00
2022-12-24T18:50:15.298Z,100.00
2022-12-24T18:52:43.233Z,100.00
2022-12-24T18:55:11.666Z,100.00
2022-12-24T18:57:39.687Z,100.00
2022-12-24T19:00:08.850Z,100.00
2022-12-24T19:02:36.787Z,100.00
2022-12-24T19:05:05.280Z,100.00
2022-12-24T19:07:34.681Z,100.00
2022-12-24T19:10:02.721Z,100.00
2022-12-24T19:12:30.655Z,100.00
2022-12-24T19:14:58.776Z,100.00
2022-12-24T19:17:26.718Z,100.00
2022-12-24T19:19:54.833Z,100.00
2022-12-24T19:22:22.829Z,100.00
2022-12-24T19:24:52.607Z,100.00
2022-12-24T19:27:20.627Z,100.00
2022-12-24T19:29:48.802Z,100.00
2022-12-24T19:32:16.939Z,100.00
2022-12-24T19:34:44.883Z,100.00
2022-12-24T19:37:12.904Z,100.00
2022-12-24T19:39:42.394Z,100.00
2022-12-24T19:42:11.739Z,100.00
2022-12-24T19:44:39.742Z,100.00
2022-12-24T19:47:07.775Z,100.00
2022-12-24T19:49:35.721Z,100.00
2022-12-24T19:52:03.724Z,100.00
2022-12-24T19:54:31.749Z,100.00
2022-12-24T19:56:59.727Z,100.00
2022-12-24T19:59:29.047Z,100.00
2022-12-24T20:01:57.434Z,100.00
2022-12-24T20:04:25.502Z,100.00
2022-12-24T20:07:00.073Z,100.00
2022-12-24T20:09:29.047Z,100.00
2022-12-24T20:11:56.956Z,100.00
2022-12-24T20:14:24.961Z,100.00
2022-12-24T20:16:54.575Z,100.00
2022-12-24T20:19:22.866Z,100.00
2022-12-24T20:21:50.815Z,100.00
2022-12-24T20:24:18.858Z,100.00
2022-12-24T20:26:47.044Z,100.00
2022-12-24T20:29:15.201Z,100.00
2022-12-24T20:31:43.248Z,100.00
2022-12-24T20:34:13.009Z,100.00
2022-12-24T20:36:40.999Z,100.00
2022-12-24T20:39:09.338Z,100.00
2022-12-24T20:41:37.583Z,100.00
2022-12-24T20:44:05.695Z,100.00
2022-12-24T20:46:34.108Z,100.00
2022-12-24T20:49:02.210Z,100.00
2022-12-24T20:51:31.717Z,100.00
2022-12-24T20:54:01.483Z,100.00
2022-12-24T20:56:30.834Z,100.00
2022-12-24T20:59:00.698Z,100.00
2022-12-24T21:01:29.665Z,100.00
2022-12-24T21:04:00.237Z,100.00
2022-12-24T21:06:28.288Z,100.00
2022-12-24T21:08:57.653Z,100.00
2022-12-24T21:11:43.436Z,100.00
2022-12-24T21:14:12.444Z,100.00
2022-12-24T21:16:41.467Z,100.00
2022-12-24T21:19:12.688Z,100.00
2022-12-24T21:21:40.733Z,100.00
2022-12-24T21:24:10.759Z,100.00
2022-12-24T21:26:38.911Z,100.00
2022-12-24T21:29:09.124Z,100.00
2022-12-24T21:31:38.273Z,100.00
2022-12-24T21:34:06.229Z,100.00
2022-12-24T21:36:34.304Z,100.00
2022-12-24T21:39:02.305Z,100.00
2022-12-24T21:41:32.004Z,100.00
2022-12-24T21:44:02.027Z,100.00
2022-12-24T21:46:30.132Z,100.00
2022-12-24T21:49:15.874Z,100.00
2022-12-24T21:51:46.896Z,100.00
2022-12-24T21:54:31.192Z,100.00
2022-12-24T21:57:20.299Z,100.00
2022-12-24T21:59:50.360Z,100.00
2022-12-24T22:02:20.104Z,100.00
2022-12-24T22:04:48.147Z,100.00
2022-12-24T22:07:39.530Z,100.00
2022-12-24T22:10:26.403Z,100.00
2022-12-24T22:12:56.441Z,100.00
2022-12-24T22:15:24.429Z,100.00
2022-12-24T22:17:53.512Z,100.00
2022-12-24T22:20:21.534Z,100.00
2022-12-24T22:22:49.790Z,100.00
2022-12-24T22:25:18.331Z,100.00
2022-12-24T22:27:46.790Z,100.00
2022-12-24T22:30:16.160Z,100.00
2022-12-24T22:32:44.188Z,100.00
2022-12-24T22:35:12.133Z,100.00
2022-12-24T22:37:40.491Z,100.00
2022-12-24T22:40:10.062Z,100.00
2022-12-24T22:42:38.116Z,100.00
2022-12-24T22:45:07.226Z,100.00
2022-12-24T22:47:36.402Z,100.00
2022-12-24T22:50:05.485Z,100.00
2022-12-24T22:52:33.693Z,100.00
2022-12-24T22:55:02.172Z,100.00
2022-12-24T22:57:30.238Z,100.00
2022-12-24T22:59:58.197Z,100.00
2022-12-24T23:02:28.606Z,100.00
2022-12-24T23:04:58.559Z,100.00
2022-12-24T23:07:30.580Z,100.00
2022-12-24T23:09:59.802Z,100.00
2022-12-24T23:12:43.981Z,100.00
2022-12-24T23:15:12.749Z,100.00
2022-12-24T23:17:42.112Z,100.00
2022-12-24T23:20:12.379Z,100.00
2022-12-24T23:22:40.338Z,100.00
2022-12-24T23:25:08.934Z,100.00
2022-12-24T23:27:39.894Z,100.00
2022-12-24T23:30:09.195Z,100.00
2022-12-24T23:32:38.980Z,100.00
2022-12-24T23:35:11.504Z,100.00
2022-12-24T23:37:42.138Z,100.00
2022-12-24T23:40:16.480Z,100.00
2022-12-24T23:42:44.487Z,100.00
2022-12-24T23:45:12.722Z,100.00
2022-12-24T23:47:43.520Z,100.00
2022-12-24T23:50:14.801Z,100.00
2022-12-24T23:52:44.135Z,100.00
2022-12-24T23:55:12.192Z,100.00
2022-12-24T23:57:47.086Z,100.00
